sensor_id;sensor_type;location;lat;lon;timestamp;pressure;altitude;pressure_sealevel;temperature;humidity
49104;BME280;34915;52.926;11.116;2023-04-07T16:31:26;102038.19;;;7.40;86.87
49104;BME280;34915;52.926;11.116;2023-04-07T16:33:52;102045.94;;;7.44;86.07
49104;BME280;34915;52.926;11.116;2023-04-07T16:36:18;102039.56;;;7.50;86.03
49104;BME280;34915;52.926;11.116;2023-04-07T16:38:43;102041.31;;;7.51;86.13
49104;BME280;34915;52.926;11.116;2023-04-07T16:41:09;102051.94;;;7.48;86.71
49104;BME280;34915;52.926;11.116;2023-04-07T16:43:34;102045.09;;;7.65;86.33
49104;BME280;34915;52.926;11.116;2023-04-07T16:46:02;102041.06;;;7.57;85.94
49104;BME280;34915;52.926;11.116;2023-04-07T16:48:30;102042.66;;;7.61;86.88
49104;BME280;34915;52.926;11.116;2023-04-07T16:50:55;102048.03;;;7.58;86.97
49104;BME280;34915;52.926;11.116;2023-04-07T16:53:21;102049.34;;;7.69;85.96
49104;BME280;34915;52.926;11.116;2023-04-07T16:55:46;102051.63;;;7.57;86.87
49104;BME280;34915;52.926;11.116;2023-04-07T16:58:12;102060.19;;;7.62;87.02
49104;BME280;34915;52.926;11.116;2023-04-07T17:00:40;102052.00;;;7.69;86.98
49104;BME280;34915;52.926;11.116;2023-04-07T17:03:05;102058.69;;;7.55;86.72
49104;BME280;34915;52.926;11.116;2023-04-07T17:05:31;102061.16;;;7.59;86.98
49104;BME280;34915;52.926;11.116;2023-04-07T17:07:56;102061.09;;;7.61;87.19
49104;BME280;34915;52.926;11.116;2023-04-07T17:10:22;102068.81;;;7.44;87.93
49104;BME280;34915;52.926;11.116;2023-04-07T17:12:47;102072.59;;;7.60;86.64
49104;BME280;34915;52.926;11.116;2023-04-07T17:15:17;102078.75;;;7.36;87.80
49104;BME280;34915;52.926;11.116;2023-04-07T17:17:44;102068.03;;;7.40;87.83
49104;BME280;34915;52.926;11.116;2023-04-07T17:20:10;102078.28;;;7.48;87.48
49104;BME280;34915;52.926;11.116;2023-04-07T17:22:36;102076.81;;;7.41;87.81
49104;BME280;34915;52.926;11.116;2023-04-07T17:25:03;102087.91;;;7.26;88.19
49104;BME280;34915;52.926;11.116;2023-04-07T17:27:30;102085.66;;;7.16;89.02
49104;BME280;34915;52.926;11.116;2023-04-07T17:29:55;102085.66;;;7.16;89.77
49104;BME280;34915;52.926;11.116;2023-04-07T17:32:21;102092.94;;;7.09;90.19
49104;BME280;34915;52.926;11.116;2023-04-07T17:34:47;102097.47;;;7.04;89.77
49104;BME280;34915;52.926;11.116;2023-04-07T17:37:12;102103.63;;;7.05;89.61
49104;BME280;34915;52.926;11.116;2023-04-07T17:39:38;102101.38;;;6.94;90.19
49104;BME280;34915;52.926;11.116;2023-04-07T17:42:03;102105.00;;;6.90;90.62
49104;BME280;34915;52.926;11.116;2023-04-07T17:44:29;102099.53;;;6.96;89.68
49104;BME280;34915;52.926;11.116;2023-04-07T17:46:55;102106.22;;;7.06;89.61
49104;BME280;34915;52.926;11.116;2023-04-07T17:49:21;102122.56;;;6.91;90.40
49104;BME280;34915;52.926;11.116;2023-04-07T17:51:46;102120.72;;;6.93;90.86
49104;BME280;34915;52.926;11.116;2023-04-07T17:54:12;102119.81;;;6.94;90.38
49104;BME280;34915;52.926;11.116;2023-04-07T17:56:37;102124.16;;;6.95;90.77
49104;BME280;34915;52.926;11.116;2023-04-07T17:59:04;102124.34;;;6.89;90.56
49104;BME280;34915;52.926;11.116;2023-04-07T18:01:29;102127.72;;;6.94;90.92
49104;BME280;34915;52.926;11.116;2023-04-07T18:03:55;102122.34;;;6.97;90.99
49104;BME280;34915;52.926;11.116;2023-04-07T18:06:21;102119.97;;;6.90;91.48
49104;BME280;34915;52.926;11.116;2023-04-07T18:08:48;102124.66;;;6.81;92.21
49104;BME280;34915;52.926;11.116;2023-04-07T18:11:13;102123.81;;;6.80;92.08
49104;BME280;34915;52.926;11.116;2023-04-07T18:13:39;102137.34;;;6.70;93.21
49104;BME280;34915;52.926;11.116;2023-04-07T18:16:05;102133.69;;;6.74;93.68
49104;BME280;34915;52.926;11.116;2023-04-07T18:18:34;102135.09;;;6.84;93.34
49104;BME280;34915;52.926;11.116;2023-04-07T18:21:02;102134.25;;;6.83;92.38
49104;BME280;34915;52.926;11.116;2023-04-07T18:23:27;102136.63;;;6.90;92.77
49104;BME280;34915;52.926;11.116;2023-04-07T18:25:53;102140.16;;;6.89;92.45
49104;BME280;34915;52.926;11.116;2023-04-07T18:28:18;102145.75;;;6.81;92.48
49104;BME280;34915;52.926;11.116;2023-04-07T18:30:44;102142.50;;;6.73;93.02
49104;BME280;34915;52.926;11.116;2023-04-07T18:33:10;102146.78;;;6.75;93.47
49104;BME280;34915;52.926;11.116;2023-04-07T18:35:35;102149.38;;;6.77;93.72
49104;BME280;34915;52.926;11.116;2023-04-07T18:38:01;102154.75;;;6.74;94.36
49104;BME280;34915;52.926;11.116;2023-04-07T18:40:28;102152.94;;;6.76;94.00
49104;BME280;34915;52.926;11.116;2023-04-07T18:42:56;102154.75;;;6.74;94.00
49104;BME280;34915;52.926;11.116;2023-04-07T18:45:22;102160.41;;;6.62;94.50
49104;BME280;34915;52.926;11.116;2023-04-07T18:47:48;102161.50;;;6.55;95.21
49104;BME280;34915;52.926;11.116;2023-04-07T18:50:13;102162.44;;;6.54;96.34
49104;BME280;34915;52.926;11.116;2023-04-07T18:52:39;102171.16;;;6.56;96.69
49104;BME280;34915;52.926;11.116;2023-04-07T18:55:06;102168.56;;;6.54;96.66
49104;BME280;34915;52.926;11.116;2023-04-07T18:57:32;102175.91;;;6.71;94.83
49104;BME280;34915;52.926;11.116;2023-04-07T18:59:57;102176.09;;;6.65;95.33
49104;BME280;34915;52.926;11.116;2023-04-07T19:02:23;102174.47;;;6.61;96.34
49104;BME280;34915;52.926;11.116;2023-04-07T19:04:48;102177.16;;;6.59;97.51
49104;BME280;34915;52.926;11.116;2023-04-07T19:07:14;102176.50;;;6.53;96.19
49104;BME280;34915;52.926;11.116;2023-04-07T19:09:40;102183.91;;;6.42;97.32
49104;BME280;34915;52.926;11.116;2023-04-07T19:12:06;102187.41;;;6.41;98.42
49104;BME280;34915;52.926;11.116;2023-04-07T19:14:33;102182.25;;;6.38;98.00
49104;BME280;34915;52.926;11.116;2023-04-07T19:16:59;102173.78;;;6.56;97.94
49104;BME280;34915;52.926;11.116;2023-04-07T19:19:25;102188.22;;;6.43;98.79
49104;BME280;34915;52.926;11.116;2023-04-07T19:21:52;102190.84;;;6.43;99.47
49104;BME280;34915;52.926;11.116;2023-04-07T19:24:18;102192.41;;;6.50;98.22
49104;BME280;34915;52.926;11.116;2023-04-07T19:26:43;102188.78;;;6.54;97.93
49104;BME280;34915;52.926;11.116;2023-04-07T19:29:09;102187.22;;;6.47;99.21
49104;BME280;34915;52.926;11.116;2023-04-07T19:31:36;102183.94;;;6.39;99.66
49104;BME280;34915;52.926;11.116;2023-04-07T19:34:03;102187.13;;;6.50;99.39
49104;BME280;34915;52.926;11.116;2023-04-07T19:36:28;102195.59;;;6.32;100.00
49104;BME280;34915;52.926;11.116;2023-04-07T19:38:54;102183.94;;;6.39;100.00
49104;BME280;34915;52.926;11.116;2023-04-07T19:41:19;102198.59;;;6.47;100.00
49104;BME280;34915;52.926;11.116;2023-04-07T19:43:45;102200.69;;;6.38;100.00
49104;BME280;34915;52.926;11.116;2023-04-07T19:46:11;102200.53;;;6.42;100.00
49104;BME280;34915;52.926;11.116;2023-04-07T19:48:37;102193.69;;;6.37;100.00
49104;BME280;34915;52.926;11.116;2023-04-07T19:51:02;102198.91;;;6.38;100.00
49104;BME280;34915;52.926;11.116;2023-04-07T19:53:28;102205.19;;;6.33;100.00
49104;BME280;34915;52.926;11.116;2023-04-07T19:55:53;102202.47;;;6.36;100.00
49104;BME280;34915;52.926;11.116;2023-04-07T19:58:19;102198.22;;;6.32;100.00
49104;BME280;34915;52.926;11.116;2023-04-07T20:00:47;102201.06;;;6.26;100.00
49104;BME280;34915;52.926;11.116;2023-04-07T20:03:15;102201.75;;;6.31;100.00
49104;BME280;34915;52.926;11.116;2023-04-07T20:05:40;102201.84;;;6.28;100.00
49104;BME280;34915;52.926;11.116;2023-04-07T20:08:06;102198.13;;;6.35;100.00
49104;BME280;34915;52.926;11.116;2023-04-07T20:10:31;102200.72;;;6.37;100.00
49104;BME280;34915;52.926;11.116;2023-04-07T20:12:57;102203.41;;;6.35;100.00
49104;BME280;34915;52.926;11.116;2023-04-07T20:15:23;102195.69;;;6.29;100.00
49104;BME280;34915;52.926;11.116;2023-04-07T20:17:51;102206.31;;;6.26;100.00
49104;BME280;34915;52.926;11.116;2023-04-07T20:20:17;102205.56;;;6.21;100.00
49104;BME280;34915;52.926;11.116;2023-04-07T20:22:43;102194.97;;;6.24;100.00
49104;BME280;34915;52.926;11.116;2023-04-07T20:25:09;102195.22;;;6.44;100.00
49104;BME280;34915;52.926;11.116;2023-04-07T20:27:35;102207.03;;;6.31;100.00
49104;BME280;34915;52.926;11.116;2023-04-07T20:30:00;102208.84;;;6.29;100.00
49104;BME280;34915;52.926;11.116;2023-04-07T20:32:29;102212.00;;;6.40;100.00
49104;BME280;34915;52.926;11.116;2023-04-07T20:34:57;102210.38;;;6.36;100.00
49104;BME280;34915;52.926;11.116;2023-04-07T20:37:23;102212.00;;;6.40;100.00
49104;BME280;34915;52.926;11.116;2023-04-07T20:39:50;102208.66;;;6.35;100.00
49104;BME280;34915;52.926;11.116;2023-04-07T20:42:16;102215.91;;;6.27;100.00
49104;BME280;34915;52.926;11.116;2023-04-07T20:44:42;102212.38;;;6.28;100.00
49104;BME280;34915;52.926;11.116;2023-04-07T20:49:35;102224.81;;;6.23;100.00
49104;BME280;34915;52.926;11.116;2023-04-07T20:52:04;102215.81;;;6.30;100.00
49104;BME280;34915;52.926;11.116;2023-04-07T20:54:30;102202.03;;;6.22;100.00
49104;BME280;34915;52.926;11.116;2023-04-07T20:56:55;102210.66;;;6.27;100.00
49104;BME280;34915;52.926;11.116;2023-04-07T20:59:21;102211.81;;;6.19;100.00
49104;BME280;34915;52.926;11.116;2023-04-07T21:01:47;102216.19;;;6.18;100.00
49104;BME280;34915;52.926;11.116;2023-04-07T21:04:12;102211.91;;;6.14;100.00
49104;BME280;34915;52.926;11.116;2023-04-07T21:06:38;102215.63;;;6.09;100.00
49104;BME280;34915;52.926;11.116;2023-04-07T21:09:04;102216.47;;;6.09;100.00
49104;BME280;34915;52.926;11.116;2023-04-07T21:11:34;102206.97;;;6.04;100.00
49104;BME280;34915;52.926;11.116;2023-04-07T21:13:59;102214.72;;;6.08;100.00
49104;BME280;34915;52.926;11.116;2023-04-07T21:16:26;102210.22;;;6.13;100.00
49104;BME280;34915;52.926;11.116;2023-04-07T21:18:52;102211.19;;;6.09;100.00
49104;BME280;34915;52.926;11.116;2023-04-07T21:21:17;102213.03;;;6.07;100.00
49104;BME280;34915;52.926;11.116;2023-04-07T21:23:43;102211.28;;;6.06;100.00
49104;BME280;34915;52.926;11.116;2023-04-07T21:26:08;102207.81;;;6.06;100.00
49104;BME280;34915;52.926;11.116;2023-04-07T21:28:34;102209.47;;;6.08;100.00
49104;BME280;34915;52.926;11.116;2023-04-07T21:31:00;102219.28;;;6.03;100.00
49104;BME280;34915;52.926;11.116;2023-04-07T21:33:26;102211.56;;;5.97;100.00
49104;BME280;34915;52.926;11.116;2023-04-07T21:35:51;102204.28;;;6.05;100.00
49104;BME280;34915;52.926;11.116;2023-04-07T21:38:19;102206.13;;;6.03;100.00
49104;BME280;34915;52.926;11.116;2023-04-07T21:40:44;102210.41;;;6.07;100.00
49104;BME280;34915;52.926;11.116;2023-04-07T21:43:10;102204.22;;;6.08;100.00
49104;BME280;34915;52.926;11.116;2023-04-07T21:45:36;102196.78;;;5.93;100.00
49104;BME280;34915;52.926;11.116;2023-04-07T21:48:02;102200.25;;;5.95;100.00
49104;BME280;34915;52.926;11.116;2023-04-07T21:50:28;102203.53;;;6.02;100.00
49104;BME280;34915;52.926;11.116;2023-04-07T21:52:54;102199.31;;;5.96;100.00
49104;BME280;34915;52.926;11.116;2023-04-07T21:55:19;102207.84;;;6.04;100.00
49104;BME280;34915;52.926;11.116;2023-04-07T21:57:45;102211.81;;;6.19;100.00
49104;BME280;34915;52.926;11.116;2023-04-07T22:00:12;102206.88;;;6.07;100.00
49104;BME280;34915;52.926;11.116;2023-04-07T22:02:38;102210.66;;;5.98;100.00
49104;BME280;34915;52.926;11.116;2023-04-07T22:05:04;102209.47;;;6.08;100.00
49104;BME280;34915;52.926;11.116;2023-04-07T22:07:30;102213.03;;;6.07;100.00
49104;BME280;34915;52.926;11.116;2023-04-07T22:09:56;102204.28;;;6.05;100.00
49104;BME280;34915;52.926;11.116;2023-04-07T22:12:22;102205.75;;;6.15;100.00
49104;BME280;34915;52.926;11.116;2023-04-07T22:14:48;102202.50;;;6.07;100.00
49104;BME280;34915;52.926;11.116;2023-04-07T22:17:14;102199.50;;;5.90;100.00
49104;BME280;34915;52.926;11.116;2023-04-07T22:19:40;102204.38;;;6.02;100.00
49104;BME280;34915;52.926;11.116;2023-04-07T22:22:06;102209.91;;;5.93;100.00
49104;BME280;34915;52.926;11.116;2023-04-07T22:24:33;102207.84;;;6.04;100.00
49104;BME280;34915;52.926;11.116;2023-04-07T22:26:59;102208.19;;;5.92;100.00
49104;BME280;34915;52.926;11.116;2023-04-07T22:29:26;102206.84;;;5.80;100.00
49104;BME280;34915;52.926;11.116;2023-04-07T22:31:51;102204.94;;;5.85;100.00
49104;BME280;34915;52.926;11.116;2023-04-07T22:34:17;102207.19;;;5.96;100.00
49104;BME280;34915;52.926;11.116;2023-04-07T22:36:42;102206.66;;;5.86;100.00
49104;BME280;34915;52.926;11.116;2023-04-07T22:39:08;102207.38;;;5.90;100.00
49104;BME280;34915;52.926;11.116;2023-04-07T22:41:34;102213.72;;;5.84;100.00
49104;BME280;34915;52.926;11.116;2023-04-07T22:43:59;102203.38;;;5.78;100.00
49104;BME280;34915;52.926;11.116;2023-04-07T22:46:25;102208.63;;;5.78;100.00
49104;BME280;34915;52.926;11.116;2023-04-07T22:48:50;102208.50;;;5.82;100.00
49104;BME280;34915;52.926;11.116;2023-04-07T22:51:16;102210.53;;;6.03;100.00
49104;BME280;34915;52.926;11.116;2023-04-07T22:53:41;102214.72;;;6.08;100.00
49104;BME280;34915;52.926;11.116;2023-04-07T22:56:07;102213.69;;;6.14;100.00
49104;BME280;34915;52.926;11.116;2023-04-07T22:58:35;102218.47;;;6.01;100.00
49104;BME280;34915;52.926;11.116;2023-04-07T23:01:00;102218.38;;;6.04;100.00
49104;BME280;34915;52.926;11.116;2023-04-07T23:03:26;102220.06;;;6.05;100.00
49104;BME280;34915;52.926;11.116;2023-04-07T23:05:51;102228.81;;;6.07;100.00
49104;BME280;34915;52.926;11.116;2023-04-07T23:08:17;102225.66;;;5.95;100.00
49104;BME280;34915;52.926;11.116;2023-04-07T23:10:43;102228.91;;;6.04;100.00
49104;BME280;34915;52.926;11.116;2023-04-07T23:13:10;102233.78;;;6.16;100.00
49104;BME280;34915;52.926;11.116;2023-04-07T23:15:39;102220.69;;;6.15;100.00
49104;BME280;34915;52.926;11.116;2023-04-07T23:18:05;102230.28;;;6.17;100.00
49104;BME280;34915;52.926;11.116;2023-04-07T23:20:31;102230.50;;;6.08;100.00
49104;BME280;34915;52.926;11.116;2023-04-07T23:22:56;102233.97;;;6.10;100.00
49104;BME280;34915;52.926;11.116;2023-04-07T23:25:22;102239.41;;;6.04;100.00
49104;BME280;34915;52.926;11.116;2023-04-07T23:27:48;102224.66;;;5.99;100.00
49104;BME280;34915;52.926;11.116;2023-04-07T23:30:13;102229.16;;;5.95;100.00
49104;BME280;34915;52.926;11.116;2023-04-07T23:32:39;102235.88;;;6.05;100.00
49104;BME280;34915;52.926;11.116;2023-04-07T23:35:05;102229.16;;;5.95;100.00
49104;BME280;34915;52.926;11.116;2023-04-07T23:37:30;102231.03;;;5.90;100.00
49104;BME280;34915;52.926;11.116;2023-04-07T23:39:56;102218.78;;;5.89;100.00
49104;BME280;34915;52.926;11.116;2023-04-07T23:42:22;102225.97;;;5.85;100.00
49104;BME280;34915;52.926;11.116;2023-04-07T23:44:48;102222.00;;;6.00;100.00
49104;BME280;34915;52.926;11.116;2023-04-07T23:47:13;102226.78;;;5.87;100.00
49104;BME280;34915;52.926;11.116;2023-04-07T23:49:39;102225.97;;;5.85;100.00
49104;BME280;34915;52.926;11.116;2023-04-07T23:52:04;102229.41;;;5.87;100.00
49104;BME280;34915;52.926;11.116;2023-04-07T23:54:30;102231.03;;;5.90;100.00
49104;BME280;34915;52.926;11.116;2023-04-07T23:56:58;102222.25;;;5.91;100.00
49104;BME280;34915;52.926;11.116;2023-04-07T23:59:23;102224.13;;;5.87;100.00
